Time;durP1;ratioP1;P1;durP2;ratioP2;P2;SDS_P1;SDS_P2;PMS_P1;PMS_P2;Temp;Humidity;BMP_temperature;BMP_pressure;BME280_temperature;BME280_humidity;BME280_pressure;Samples;Min_cycle;Max_cycle;Signal;HPM_P1;HPM_P2
2024/01/23 00:00:12;;;;;;;6.00;4.30;;;;;;;4.46;94.92;96563.32;108346;1283;22965;-85
2024/01/23 00:04:16;;;;;;;6.50;4.30;;;;;;;4.44;96.05;96563.33;108373;1277;137516;-86
2024/01/23 00:07:23;;;;;;;7.80;5.60;;;;;;;4.45;96.42;96560.42;108322;1283;22595;-85
2024/01/23 00:10:50;;;;;;;6.80;4.40;;;;;;;4.47;96.49;96556.30;108266;1283;138168;-86
2024/01/23 00:14:18;;;;;;;4.30;3.30;;;;;;;4.54;95.70;96569.21;108411;1282;22549;-85
2024/01/23 00:17:44;;;;;;;7.20;4.50;;;;;;;4.55;95.66;96577.55;108400;1282;22530;-86
2024/01/23 00:21:11;;;;;;;7.70;5.30;;;;;;;4.55;95.07;96590.81;108610;1277;22533;-85
2024/01/23 00:24:39;;;;;;;9.90;5.70;;;;;;;4.51;94.68;96590.23;108432;1282;22530;-85
2024/01/23 00:28:06;;;;;;;7.90;5.40;;;;;;;4.48;95.64;96588.31;108381;1283;22575;-85
2024/01/23 00:31:37;;;;;;;5.80;3.90;;;;;;;4.48;95.52;96584.20;108399;1282;22530;-84
2024/01/23 00:35:03;;;;;;;5.10;3.60;;;;;;;4.48;95.49;96594.46;108247;1282;137513;-86
2024/01/23 00:38:23;;;;;;;4.80;3.20;;;;;;;4.47;94.86;96597.66;108424;1282;22546;-86
2024/01/23 00:41:51;;;;;;;5.30;4.30;;;;;;;4.46;95.33;96605.84;108696;1282;22621;-86
2024/01/23 00:45:18;;;;;;;4.50;3.00;;;;;;;4.47;95.38;96605.57;108335;1282;22566;-85
2024/01/23 00:48:45;;;;;;;5.10;3.40;;;;;;;4.47;96.45;96611.23;108375;1276;22539;-86
2024/01/23 00:52:13;;;;;;;4.50;2.80;;;;;;;4.45;97.33;96613.30;108342;1282;136878;-86
2024/01/23 00:55:40;;;;;;;3.90;3.20;;;;;;;4.41;98.28;96615.55;108380;1283;22543;-85
2024/01/23 00:59:05;;;;;;;;;;;;;;;;;;;;;
2024/01/23 01:02:38;;;;;;;2.40;2.10;;;;;;;4.36;98.75;96607.95;108365;1282;22622;-84
2024/01/23 01:06:11;;;;;;;3.40;2.50;;;;;;;4.37;99.24;96610.92;108266;1260;22550;-84
2024/01/23 01:09:38;;;;;;;3.30;2.40;;;;;;;4.37;99.74;96603.39;108179;1284;138085;-84
2024/01/23 01:13:05;;;;;;;3.10;2.30;;;;;;;4.38;99.95;96597.60;108301;1284;25499;-84
2024/01/23 01:16:33;;;;;;;3.20;2.40;;;;;;;4.36;99.91;96601.73;108260;1283;138320;-84
2024/01/23 01:19:45;;;;;;;2.90;2.00;;;;;;;4.36;100.00;96598.89;108403;1276;22562;-84
2024/01/23 01:23:04;;;;;;;;;;;;;;;;;;;;;
2024/01/23 01:26:33;;;;;;;2.30;2.10;;;;;;;4.45;100.00;96602.48;108297;1284;22555;-85
2024/01/23 01:30:00;;;;;;;1.60;1.40;;;;;;;4.49;100.00;96600.39;108437;1284;137828;-86
2024/01/23 01:33:27;;;;;;;1.80;1.40;;;;;;;4.59;99.98;96600.77;108353;1283;22591;-84
2024/01/23 01:36:55;;;;;;;2.60;1.80;;;;;;;4.69;100.00;96594.65;108380;1278;22570;-85
2024/01/23 01:40:22;;;;;;;2.20;1.80;;;;;;;4.76;99.80;96597.79;108258;1284;138432;-84
2024/01/23 01:44:02;;;;;;;2.90;1.70;;;;;;;4.84;99.84;96594.79;104200;1285;22541;-84
2024/01/23 01:47:30;;;;;;;2.70;1.90;;;;;;;4.89;99.52;96591.76;108188;1283;138130;-84
2024/01/23 01:50:58;;;;;;;3.40;2.00;;;;;;;4.94;98.53;96602.00;108267;1284;24720;-85
2024/01/23 01:54:31;;;;;;;2.60;2.30;;;;;;;4.93;99.59;96598.65;108275;1283;22559;-83
2024/01/23 01:57:59;;;;;;;4.10;2.30;;;;;;;4.92;99.56;96594.30;108144;1278;22629;-83
2024/01/23 02:01:27;;;;;;;3.70;2.40;;;;;;;4.88;98.77;96603.36;108449;1277;22570;-83
2024/01/23 02:04:50;;;;;;;4.10;2.50;;;;;;;4.85;99.22;96589.91;108309;1284;136398;-83
2024/01/23 02:07:57;;;;;;;;;;;;;;;4.78;99.87;96589.54;108347;1283;22551;-83
2024/01/23 02:11:24;;;;;;;2.60;2.10;;;;;;;4.73;100.00;96590.38;108363;1284;124229;-83
2024/01/23 02:14:52;;;;;;;3.30;2.20;;;;;;;4.69;99.90;96590.12;108290;1277;22683;-84
2024/01/23 02:18:21;;;;;;;3.00;2.40;;;;;;;4.66;99.98;96596.15;108203;1261;137204;-83
2024/01/23 02:21:48;;;;;;;2.90;2.40;;;;;;;4.58;100.00;96593.23;108378;1284;22631;-83
2024/01/23 02:25:17;;;;;;;6.70;3.60;;;;;;;4.58;99.92;96603.20;108344;1277;22625;-84
2024/01/23 02:28:37;;;;;;;4.80;2.90;;;;;;;4.56;99.87;96601.15;108205;1284;138069;-84
2024/01/23 02:32:14;;;;;;;;;;;;;;;;;;;;;
2024/01/23 02:35:37;;;;;;;5.60;4.00;;;;;;;4.52;99.99;96605.63;108212;1276;136364;-84
2024/01/23 02:39:03;;;;;;;3.70;3.10;;;;;;;4.45;99.92;96614.33;108330;1276;22509;-84
2024/01/23 02:42:31;;;;;;;5.10;3.20;;;;;;;4.41;99.88;96602.51;108396;1284;22577;-84
2024/01/23 02:45:58;;;;;;;4.40;3.20;;;;;;;4.37;100.00;96604.44;108306;1284;25254;-86
2024/01/23 02:49:18;;;;;;;4.10;3.10;;;;;;;4.33;100.00;96610.25;108109;1284;22786;-85
2024/01/23 02:52:45;;;;;;;6.00;3.60;;;;;;;4.32;100.00;96605.35;108326;1281;138181;-85
2024/01/23 02:56:12;;;;;;;3.60;3.10;;;;;;;4.35;100.00;96607.83;108264;1284;22553;-85
2024/01/23 02:59:43;;;;;;;6.50;3.70;;;;;;;4.34;100.00;96602.11;108182;1284;138348;-84
2024/01/23 03:03:11;;;;;;;3.80;3.30;;;;;;;4.33;100.00;96603.88;108358;1284;22696;-85
2024/01/23 03:06:49;;;;;;;4.00;3.30;;;;;;;4.32;100.00;96604.08;108448;1283;22526;-85
2024/01/23 03:10:17;;;;;;;4.40;3.70;;;;;;;4.29;100.00;96603.56;108302;1283;138214;-86
2024/01/23 03:13:50;;;;;;;3.90;2.90;;;;;;;4.28;99.96;96601.30;108509;1282;22548;-85
2024/01/23 03:17:17;;;;;;;4.30;3.10;;;;;;;4.29;100.00;96602.73;108276;1283;138465;-85
2024/01/23 03:20:35;;;;;;;3.70;3.00;;;;;;;4.33;99.79;96610.41;108455;1275;22543;-85
2024/01/23 03:23:58;;;;;;;5.10;3.80;;;;;;;4.38;99.89;96612.42;108333;1277;136691;-84
2024/01/23 03:27:22;;;;;;;4.50;3.30;;;;;;;4.37;99.85;96610.37;108419;1276;22530;-83
2024/01/23 03:30:50;;;;;;;4.70;3.10;;;;;;;4.37;99.91;96618.10;108479;1277;25320;-82
2024/01/23 03:34:10;;;;;;;4.60;3.80;;;;;;;4.36;99.88;96616.55;108468;1280;137013;-84
2024/01/23 03:37:37;;;;;;;4.00;3.50;;;;;;;4.37;99.51;96616.76;108359;1283;22598;-83
2024/01/23 03:41:07;;;;;;;5.70;3.80;;;;;;;4.39;98.97;96621.41;108306;1283;137941;-83
2024/01/23 03:44:32;;;;;;;4.00;3.50;;;;;;;4.42;98.95;96630.10;108512;1283;22521;-83
2024/01/23 03:47:53;;;;;;;5.00;3.80;;;;;;;4.41;98.38;96634.11;108473;1283;137863;-83
2024/01/23 03:51:13;;;;;;;5.90;4.10;;;;;;;4.40;98.47;96642.88;108466;1283;23386;-83
2024/01/23 03:54:46;;;;;;;5.90;4.00;;;;;;;4.39;98.08;96637.67;108403;1281;137208;-83
2024/01/23 03:58:13;;;;;;;4.90;3.30;;;;;;;4.37;98.18;96639.73;108292;1277;22563;-84
2024/01/23 04:01:41;;;;;;;5.90;4.00;;;;;;;4.38;98.20;96636.17;108360;1283;25443;-84
2024/01/23 04:05:10;;;;;;;7.50;4.40;;;;;;;4.41;98.28;96637.70;108272;1277;138399;-84
2024/01/23 04:08:34;;;;;;;7.00;4.30;;;;;;;4.40;98.02;96638.98;108428;1277;22568;-84
2024/01/23 04:12:02;;;;;;;8.50;5.90;;;;;;;4.41;98.29;96647.33;108279;1276;137754;-84
2024/01/23 04:15:30;;;;;;;5.00;3.70;;;;;;;4.38;98.96;96640.66;108389;1277;22658;-84
2024/01/23 04:18:57;;;;;;;7.60;5.00;;;;;;;4.39;98.66;96631.85;108532;1282;22576;-84
2024/01/23 04:22:24;;;;;;;5.90;4.30;;;;;;;4.38;98.26;96640.30;108332;1283;26485;-84
2024/01/23 04:25:52;;;;;;;7.10;5.00;;;;;;;4.39;98.61;96649.88;108432;1282;22579;-84
2024/01/23 04:29:19;;;;;;;7.00;4.70;;;;;;;4.38;98.38;96653.19;108398;1282;137916;-84
2024/01/23 04:32:46;;;;;;;8.50;5.30;;;;;;;4.37;98.11;96654.80;108461;1277;22539;-84
2024/01/23 04:36:14;;;;;;;5.80;4.60;;;;;;;4.37;98.35;96658.14;108345;1275;137317;-85
2024/01/23 04:39:41;;;;;;;8.50;5.60;;;;;;;4.33;98.51;96657.42;108427;1263;22627;-84
2024/01/23 04:43:07;;;;;;;9.50;5.60;;;;;;;4.34;97.96;96666.27;108420;1282;22561;-83
2024/01/23 04:46:35;;;;;;;8.10;4.90;;;;;;;4.35;98.39;96664.83;108425;1282;22561;-84
2024/01/23 04:50:02;;;;;;;5.70;4.70;;;;;;;4.32;98.36;96665.95;108347;1282;24763;-84
2024/01/23 04:53:32;;;;;;;6.70;4.20;;;;;;;4.32;97.38;96670.69;108391;1283;138427;-84
2024/01/23 04:56:49;;;;;;;8.20;4.00;;;;;;;4.36;96.94;96673.85;108329;1283;22530;-84
2024/01/23 05:00:17;;;;;;;5.80;4.10;;;;;;;4.32;97.06;96669.85;108322;1282;138475;-84
2024/01/23 05:03:44;;;;;;;6.50;4.90;;;;;;;4.26;97.04;96676.92;108326;1277;23267;-84
2024/01/23 05:07:12;;;;;;;7.50;5.10;;;;;;;4.25;96.38;96672.63;108248;1283;138379;-84
2024/01/23 05:10:39;;;;;;;7.10;4.60;;;;;;;4.21;97.03;96675.98;108444;1282;25266;-84
2024/01/23 05:14:09;;;;;;;7.30;4.80;;;;;;;4.17;97.00;96685.60;108348;1283;22552;-84
2024/01/23 05:17:37;;;;;;;8.50;4.40;;;;;;;4.18;96.98;96689.98;108803;1278;138067;-83
2024/01/23 05:20:38;;;;;;;;;;;;;;;;;;;;;
2024/01/23 05:24:07;;;;;;;12.40;8.60;;;;;;;4.17;96.26;96685.09;108426;1283;136359;-84
2024/01/23 05:27:34;;;;;;;6.70;4.90;;;;;;;4.14;96.41;96681.40;108499;1283;22539;-84
2024/01/23 05:31:02;;;;;;;8.30;4.80;;;;;;;4.13;95.95;96687.64;108295;1283;137143;-84
2024/01/23 05:34:31;;;;;;;10.10;5.00;;;;;;;4.11;96.16;96695.40;108341;1282;24492;-84
2024/01/23 05:37:58;;;;;;;7.00;4.40;;;;;;;4.05;96.45;96697.42;108458;1260;22558;-84
2024/01/23 05:41:26;;;;;;;8.50;4.70;;;;;;;4.05;96.37;96700.84;108407;1283;26554;-84
2024/01/23 05:44:53;;;;;;;7.80;4.60;;;;;;;4.09;96.60;96696.95;108366;1283;23328;-85
2024/01/23 05:48:20;;;;;;;68.10;30.20;;;;;;;4.12;96.55;96697.16;108272;1282;138305;-84
2024/01/23 05:51:39;;;;;;;;;;;;;;;;;;;;;
2024/01/23 05:55:08;;;;;;;26.60;11.90;;;;;;;4.21;96.48;96710.56;108318;1278;137737;-84
2024/01/23 05:58:35;;;;;;;36.40;13.70;;;;;;;4.22;95.96;96713.92;108494;1282;22534;-84
2024/01/23 06:02:04;;;;;;;76.90;36.10;;;;;;;4.24;95.60;96715.05;108434;1283;22558;-84
2024/01/23 06:05:25;;;;;;;;;;;;;;;;;;;;;
2024/01/23 06:08:53;;;;;;;14.50;8.40;;;;;;;4.20;96.08;96720.09;108234;1280;22534;-84
2024/01/23 06:15:48;;;;;;;36.80;18.90;;;;;;;4.20;96.14;96728.56;108292;1284;23301;-84
2024/01/23 06:18:57;;;;;;;;;;;;;;;;;;;;;
2024/01/23 06:22:37;;;;;;;15.00;8.10;;;;;;;4.23;95.83;96733.61;108365;1284;22657;-84
2024/01/23 06:26:05;;;;;;;10.60;5.70;;;;;;;4.19;95.99;96738.39;108383;1278;23048;-84
2024/01/23 06:29:32;;;;;;;102.20;53.00;;;;;;;4.15;95.36;96743.34;108197;1284;137771;-84
2024/01/23 06:32:59;;;;;;;24.20;12.20;;;;;;;4.16;95.42;96743.62;108286;1284;22531;-83
2024/01/23 06:36:27;;;;;;;15.10;7.50;;;;;;;4.14;95.14;96743.67;108183;1281;138095;-84
2024/01/23 06:39:54;;;;;;;11.20;6.30;;;;;;;4.13;95.02;96756.20;108315;1284;22737;-84
2024/01/23 06:43:21;;;;;;;14.60;9.20;;;;;;;4.10;94.73;96753.41;108266;1283;137487;-84
2024/01/23 06:46:49;;;;;;;35.70;13.00;;;;;;;4.04;94.71;96755.60;108264;1278;22579;-84
2024/01/23 06:50:16;;;;;;;10.10;6.20;;;;;;;3.99;95.01;96749.37;108210;1284;22544;-84
2024/01/23 06:53:44;;;;;;;10.30;6.20;;;;;;;3.95;95.00;96758.71;108336;1278;22553;-84
2024/01/23 06:57:14;;;;;;;8.80;6.90;;;;;;;3.97;94.60;96762.42;108302;1276;24492;-84
2024/01/23 07:00:41;;;;;;;33.80;14.00;;;;;;;3.99;94.33;96764.53;108047;1284;138310;-84
2024/01/23 07:04:08;;;;;;;24.10;10.90;;;;;;;4.00;93.96;96764.02;108355;1276;22521;-84
2024/01/23 07:07:37;;;;;;;15.80;8.90;;;;;;;4.00;93.74;96770.40;108284;1282;137676;-84
2024/01/23 07:11:04;;;;;;;9.90;5.70;;;;;;;3.98;93.73;96770.27;108500;1282;24317;-84
2024/01/23 07:14:31;;;;;;;11.00;7.70;;;;;;;3.93;93.15;96790.70;108427;1283;22532;-82
2024/01/23 07:17:58;;;;;;;9.30;5.40;;;;;;;3.96;93.57;96787.77;108373;1282;22536;-84
2024/01/23 07:21:25;;;;;;;14.00;6.50;;;;;;;3.95;93.45;96794.14;108404;1282;22637;-85
2024/01/23 07:24:53;;;;;;;10.70;5.40;;;;;;;3.97;92.98;96808.52;108356;1281;137995;-84
2024/01/23 07:28:20;;;;;;;12.10;7.30;;;;;;;3.99;92.62;96807.02;108395;1282;22538;-84
2024/01/23 07:31:47;;;;;;;21.50;10.80;;;;;;;3.99;92.42;96811.48;108416;1280;138042;-84
2024/01/23 07:35:14;;;;;;;16.40;7.40;;;;;;;3.98;92.91;96808.16;108368;1282;24231;-83
2024/01/23 07:38:42;;;;;;;15.00;8.10;;;;;;;3.96;92.55;96810.02;108393;1278;22602;-84
2024/01/23 07:42:00;;;;;;;30.80;15.20;;;;;;;3.95;92.68;96812.11;108298;1280;137763;-85
2024/01/23 07:45:13;;;;;;;17.90;10.00;;;;;;;3.94;92.41;96821.02;108532;1282;23335;-85
2024/01/23 07:48:24;;;;;;;13.60;6.40;;;;;;;3.94;92.34;96829.00;108343;1282;138100;-85
2024/01/23 07:51:49;;;;;;;;;;;;;;;;;;;;;
2024/01/23 07:55:17;;;;;;;24.00;16.50;;;;;;;4.01;92.94;96841.96;108333;1282;137090;-85
2024/01/23 07:58:37;;;;;;;32.30;12.10;;;;;;;4.05;93.13;96851.36;108535;1282;22633;-85
2024/01/23 08:02:13;;;;;;;;;;;;;;;;;;;;;
2024/01/23 08:05:38;;;;;;;12.20;7.40;;;;;;;4.18;93.42;96864.15;108425;1276;22570;-85
2024/01/23 08:09:06;;;;;;;18.60;11.60;;;;;;;4.29;93.99;96859.48;108541;1278;23220;-86
2024/01/23 08:12:34;;;;;;;18.50;8.10;;;;;;;4.38;93.79;96862.66;108345;1283;137822;-86
2024/01/23 08:16:01;;;;;;;21.80;10.90;;;;;;;4.43;93.59;96866.78;108554;1282;22555;-86
2024/01/23 08:19:29;;;;;;;12.40;7.90;;;;;;;4.46;93.39;96872.04;108201;1282;137422;-86
2024/01/23 08:22:56;;;;;;;12.20;7.20;;;;;;;4.49;92.93;96877.95;108389;1283;24243;-85
2024/01/23 08:26:26;;;;;;;8.30;5.80;;;;;;;4.54;92.97;96881.85;108448;1282;22563;-86
2024/01/23 08:29:53;;;;;;;25.70;11.40;;;;;;;4.53;93.01;96895.27;108058;1282;22536;-86
2024/01/23 08:33:22;;;;;;;11.90;6.70;;;;;;;4.52;92.85;96892.47;108548;1279;22736;-86
2024/01/23 08:36:50;;;;;;;12.10;6.90;;;;;;;4.51;92.58;96894.83;108391;1283;22594;-86
2024/01/23 08:40:18;;;;;;;10.20;7.00;;;;;;;4.50;92.09;96900.48;108257;1284;24351;-86
2024/01/23 08:43:45;;;;;;;15.40;6.20;;;;;;;4.54;92.37;96894.88;108160;1282;137060;-86
2024/01/23 08:47:17;;;;;;;9.30;5.00;;;;;;;4.56;92.19;96900.23;108339;1283;25436;-85
2024/01/23 08:50:45;;;;;;;8.80;5.60;;;;;;;4.58;92.76;96901.39;108291;1282;22595;-86
2024/01/23 08:54:18;;;;;;;60.40;25.10;;;;;;;4.59;92.81;96911.09;108205;1283;137755;-86
2024/01/23 08:57:40;;;;;;;11.60;7.80;;;;;;;4.62;92.71;96918.04;108412;1278;22535;-86
2024/01/23 09:01:32;;;;;;;8.20;5.90;;;;;;;4.65;92.40;96910.77;108275;1282;137953;-85
2024/01/23 09:04:39;;;;;;;31.50;21.50;;;;;;;4.68;92.53;96911.50;108188;1282;22670;-86
2024/01/23 09:08:07;;;;;;;19.80;12.20;;;;;;;4.71;92.89;96907.16;108269;1277;137395;-86
2024/01/23 09:11:35;;;;;;;10.00;5.60;;;;;;;4.73;93.03;96912.64;108245;1283;22574;-86
2024/01/23 09:15:15;;;;;;;;;;;;;;;;;;;;;
2024/01/23 09:18:44;;;;;;;;;;;;;;;;;;;;;
2024/01/23 09:22:06;;;;;;;10.70;7.70;;;;;;;4.80;92.42;96913.89;108385;1283;22582;-86
2024/01/23 09:25:34;;;;;;;13.70;7.00;;;;;;;4.80;93.10;96907.88;108281;1278;137768;-84
2024/01/23 09:29:08;;;;;;;8.90;5.50;;;;;;;4.83;92.42;96914.66;108370;1281;22529;-85
2024/01/23 09:32:15;;;;;;;;;;;;;;;4.87;92.18;96913.33;108053;1283;137631;-85
2024/01/23 09:35:42;;;;;;;9.50;5.20;;;;;;;4.88;92.06;96915.45;108550;1282;22559;-86
2024/01/23 09:39:23;;;;;;;;;;;;;;;;;;;;;
2024/01/23 09:42:37;;;;;;;12.20;6.00;;;;;;;4.94;92.51;96918.55;108269;1283;137506;-84
2024/01/23 09:46:04;;;;;;;16.50;7.30;;;;;;;4.97;91.96;96921.05;108523;1277;22529;-84
2024/01/23 09:49:31;;;;;;;12.80;7.30;;;;;;;5.03;92.27;96917.23;108337;1282;137949;-84
2024/01/23 09:53:00;;;;;;;9.20;5.30;;;;;;;5.04;91.88;96916.23;108537;1277;24459;-86
2024/01/23 09:56:27;;;;;;;9.00;6.40;;;;;;;5.04;91.42;96920.02;108460;1282;137051;-84
2024/01/23 09:59:55;;;;;;;11.00;7.40;;;;;;;5.06;91.64;96932.46;108376;1283;22534;-84
2024/01/23 10:03:22;;;;;;;10.90;5.10;;;;;;;5.09;91.10;96935.44;108454;1282;22541;-86
2024/01/23 10:06:53;;;;;;;9.10;5.30;;;;;;;5.11;91.33;96942.92;108384;1276;22576;-86
2024/01/23 10:10:20;;;;;;;7.90;4.80;;;;;;;5.11;91.28;96940.02;108379;1284;22537;-86
2024/01/23 10:13:48;;;;;;;8.20;4.20;;;;;;;5.12;91.33;96935.67;108190;1284;137613;-86
2024/01/23 10:17:15;;;;;;;7.60;4.30;;;;;;;5.11;90.99;96948.48;108279;1284;22565;-85
2024/01/23 10:20:42;;;;;;;10.00;4.90;;;;;;;5.09;91.20;96950.84;108159;1279;138359;-84
2024/01/23 10:24:10;;;;;;;8.30;4.60;;;;;;;5.11;91.28;96952.35;108253;1277;22540;-84
2024/01/23 10:27:51;;;;;;;8.50;5.30;;;;;;;5.08;90.70;96954.04;108238;1261;22543;-84
2024/01/23 10:31:18;;;;;;;7.60;4.30;;;;;;;5.05;91.12;96954.66;107954;1286;138037;-84
2024/01/23 10:34:42;;;;;;;9.90;5.50;;;;;;;5.04;91.22;96960.22;108019;1290;23051;-86
2024/01/23 10:38:09;;;;;;;10.80;7.20;;;;;;;5.04;91.18;96971.42;107959;1284;137430;-86
2024/01/23 10:41:39;;;;;;;8.10;4.90;;;;;;;4.98;91.32;96974.84;108362;1281;22773;-86
2024/01/23 10:45:06;;;;;;;9.30;5.10;;;;;;;4.94;91.96;96976.21;108121;1284;22564;-86
2024/01/23 10:48:34;;;;;;;8.80;4.70;;;;;;;4.95;91.68;96979.55;108272;1278;22575;-86
2024/01/23 10:52:04;;;;;;;8.40;5.80;;;;;;;4.95;91.53;96984.73;108353;1283;22552;-86
2024/01/23 10:55:32;;;;;;;11.60;5.70;;;;;;;4.92;91.29;96997.68;108265;1278;137286;-86
2024/01/23 10:59:00;;;;;;;10.40;4.80;;;;;;;4.87;91.16;97002.77;108485;1284;22542;-86
2024/01/23 11:02:27;;;;;;;12.00;6.80;;;;;;;4.82;91.22;97005.20;108147;1284;138007;-86
2024/01/23 11:05:54;;;;;;;8.90;6.30;;;;;;;4.81;91.67;97001.86;108285;1277;22576;-86
2024/01/23 11:09:29;;;;;;;15.00;7.70;;;;;;;4.80;91.74;97007.77;108330;1282;22528;-85
2024/01/23 11:13:10;;;;;;;13.80;7.40;;;;;;;4.83;91.96;97013.52;108230;1279;136446;-86
2024/01/23 11:16:36;;;;;;;10.50;6.80;;;;;;;4.84;91.88;97011.41;108011;1283;22532;-86
2024/01/23 11:20:03;;;;;;;14.60;7.20;;;;;;;4.77;91.75;97012.97;108205;1283;137404;-86
2024/01/23 11:23:31;;;;;;;25.70;10.10;;;;;;;4.75;91.65;97013.21;108371;1282;22581;-86
2024/01/23 11:27:03;;;;;;;15.10;7.20;;;;;;;4.77;91.71;97008.20;108384;1276;137353;-86
2024/01/23 11:30:31;;;;;;;16.40;10.20;;;;;;;4.81;91.87;97008.89;108391;1279;23870;-86
2024/01/23 11:34:05;;;;;;;11.60;7.90;;;;;;;4.87;92.00;97015.13;108410;1283;22550;-86
2024/01/23 11:37:29;;;;;;;12.60;7.80;;;;;;;4.86;91.47;97012.92;108198;1283;137478;-86
2024/01/23 11:41:08;;;;;;;11.10;7.20;;;;;;;4.86;91.56;97013.15;108388;1280;22642;-86
2024/01/23 11:44:44;;;;;;;11.50;6.60;;;;;;;4.89;92.05;97019.02;108158;1281;138023;-86
2024/01/23 11:48:11;;;;;;;10.80;6.50;;;;;;;4.96;91.39;97033.08;108350;1282;22618;-86
2024/01/23 11:51:39;;;;;;;11.80;7.70;;;;;;;4.92;91.55;97036.29;108406;1275;22539;-86
2024/01/23 11:55:09;;;;;;;12.80;7.80;;;;;;;4.91;91.96;97030.91;108384;1282;23849;-86
2024/01/23 11:58:37;;;;;;;11.40;7.40;;;;;;;4.96;91.56;97033.41;108440;1282;22569;-86
2024/01/23 12:01:58;;;;;;;17.40;12.20;;;;;;;4.96;91.17;97035.64;108371;1282;137914;-85
2024/01/23 12:05:26;;;;;;;14.60;10.60;;;;;;;5.00;91.04;97038.54;108377;1282;25218;-86
2024/01/23 12:08:55;;;;;;;13.90;10.80;;;;;;;5.03;90.60;97042.52;108337;1282;137612;-86
2024/01/23 12:12:22;;;;;;;15.90;9.20;;;;;;;5.01;90.74;97042.94;108344;1278;22540;-87
2024/01/23 12:15:49;;;;;;;12.80;10.50;;;;;;;4.98;90.83;97045.77;108378;1282;25314;-86
2024/01/23 12:19:17;;;;;;;14.00;8.20;;;;;;;4.97;90.96;97042.23;108415;1276;22561;-86
2024/01/23 12:22:44;;;;;;;11.80;8.30;;;;;;;4.92;90.78;97049.86;108381;1282;22544;-87
2024/01/23 12:26:11;;;;;;;12.70;8.80;;;;;;;4.82;90.67;97051.71;108258;1277;137390;-86
2024/01/23 12:29:39;;;;;;;11.50;7.90;;;;;;;4.74;91.32;97045.73;108503;1282;25288;-87
2024/01/23 12:33:03;;;;;;;13.20;7.70;;;;;;;4.73;91.26;97044.08;108309;1282;138957;-86
2024/01/23 12:36:30;;;;;;;12.50;7.40;;;;;;;4.76;91.36;97049.98;108513;1276;24341;-86
2024/01/23 12:40:02;;;;;;;;;;;;;;;;;;;;;
2024/01/23 12:43:30;;;;;;;10.40;6.90;;;;;;;4.79;91.47;97053.88;108309;1281;136725;-82
2024/01/23 12:46:58;;;;;;;16.50;11.80;;;;;;;4.82;91.37;97055.50;108413;1283;24527;-85
2024/01/23 12:50:25;;;;;;;11.90;8.10;;;;;;;4.91;91.13;97049.59;108289;1282;138303;-84
2024/01/23 12:53:52;;;;;;;14.20;9.50;;;;;;;4.99;91.48;97049.30;108458;1275;24801;-83
2024/01/23 12:57:19;;;;;;;13.40;8.90;;;;;;;5.00;90.82;97062.08;108300;1282;137211;-84
2024/01/23 13:00:48;;;;;;;23.60;16.30;;;;;;;4.97;91.00;97069.39;108415;1282;24864;-84
2024/01/23 13:04:24;;;;;;;21.90;12.90;;;;;;;4.99;91.09;97070.23;108438;1282;22538;-84
2024/01/23 13:07:52;;;;;;;12.10;7.90;;;;;;;5.04;90.70;97079.07;108432;1282;22591;-84
2024/01/23 13:11:19;;;;;;;12.10;7.50;;;;;;;5.00;90.85;97089.89;108268;1284;22535;-84
2024/01/23 13:14:46;;;;;;;12.00;8.40;;;;;;;4.91;90.22;97089.79;108230;1283;136363;-84
2024/01/23 13:18:14;;;;;;;15.40;10.50;;;;;;;4.86;90.88;97093.43;108281;1284;23026;-84
2024/01/23 13:21:41;;;;;;;23.00;12.70;;;;;;;4.87;91.14;97100.94;108127;1284;138174;-84
2024/01/23 13:25:08;;;;;;;13.80;8.70;;;;;;;4.85;91.36;97107.12;108320;1283;22545;-83
2024/01/23 13:28:37;;;;;;;13.70;7.60;;;;;;;4.79;90.91;97106.93;108346;1284;22575;-84
2024/01/23 13:32:07;;;;;;;15.20;10.00;;;;;;;4.75;91.45;97114.13;108295;1276;137813;-85
2024/01/23 13:35:32;;;;;;;12.60;8.30;;;;;;;4.74;91.43;97116.79;108284;1284;23132;-84
2024/01/23 13:39:02;;;;;;;11.00;7.80;;;;;;;4.72;91.51;97118.16;108192;1284;138522;-84
2024/01/23 13:42:31;;;;;;;12.70;8.90;;;;;;;4.71;91.03;97118.89;104038;1281;5398671;-84
2024/01/23 13:45:59;;;;;;;12.00;8.30;;;;;;;4.70;91.16;97127.71;108182;1281;137625;-84
2024/01/23 13:49:27;;;;;;;11.70;8.60;;;;;;;4.64;90.72;97131.69;108693;1278;22578;-84
2024/01/23 13:52:57;;;;;;;14.20;8.80;;;;;;;4.60;90.76;97141.26;108346;1279;24308;-84
2024/01/23 13:56:24;;;;;;;12.80;8.00;;;;;;;4.58;90.76;97139.89;108084;1283;138307;-84
2024/01/23 13:59:51;;;;;;;10.70;8.40;;;;;;;4.59;91.23;97139.33;108278;1284;22756;-84
2024/01/23 14:03:19;;;;;;;12.70;8.70;;;;;;;4.57;90.67;97159.72;108270;1284;137332;-84
2024/01/23 14:06:47;;;;;;;15.70;9.50;;;;;;;4.53;90.72;97167.95;108347;1279;23405;-85
2024/01/23 14:10:16;;;;;;;10.00;6.80;;;;;;;4.47;90.82;97163.42;108263;1284;137770;-85
2024/01/23 14:13:46;;;;;;;35.90;22.10;;;;;;;4.50;90.32;97169.88;108308;1276;22522;-85
2024/01/23 14:17:08;;;;;;;52.40;27.50;;;;;;;4.54;90.42;97168.84;108253;1284;22544;-85
2024/01/23 14:20:35;;;;;;;22.90;11.50;;;;;;;4.58;90.32;97178.17;108126;1280;138181;-85
2024/01/23 14:24:03;;;;;;;13.10;9.30;;;;;;;4.52;89.93;97184.61;108177;1284;22552;-85
2024/01/23 14:27:30;;;;;;;13.40;9.20;;;;;;;4.43;90.19;97200.83;108157;1284;137480;-85
2024/01/23 14:30:53;;;;;;;13.30;8.40;;;;;;;4.32;90.15;97190.05;108280;1284;24277;-85
2024/01/23 14:34:20;;;;;;;10.30;6.80;;;;;;;4.27;90.15;97199.23;108137;1284;138338;-85
2024/01/23 14:37:46;;;;;;;11.90;6.80;;;;;;;4.26;90.37;97203.77;108188;1284;24288;-86
2024/01/23 14:41:19;;;;;;;15.80;8.00;;;;;;;4.21;90.98;97209.13;108230;1284;24398;-85
2024/01/23 14:44:46;;;;;;;16.30;9.90;;;;;;;4.06;92.07;97199.17;108109;1284;138489;-85
2024/01/23 14:48:16;;;;;;;;;;;;;;;;;;;;;
2024/01/23 14:51:37;;;;;;;9.90;7.40;;;;;;;3.76;94.07;97207.89;108217;1284;137983;-85
2024/01/23 14:55:04;;;;;;;19.50;8.40;;;;;;;3.68;94.33;97195.28;108260;1277;22533;-85
2024/01/23 14:58:31;;;;;;;7.50;4.80;;;;;;;3.57;94.55;97199.87;108292;1283;22539;-84
2024/01/23 15:01:51;;;;;;;6.00;4.10;;;;;;;3.47;94.24;97211.00;108342;1284;22559;-85
2024/01/23 15:05:15;;;;;;;7.80;3.90;;;;;;;3.38;93.96;97204.64;108313;1284;22540;-85
2024/01/23 15:08:35;;;;;;;4.40;2.70;;;;;;;3.36;93.63;97204.64;108232;1276;138214;-85
2024/01/23 15:12:03;;;;;;;6.30;2.80;;;;;;;3.36;93.04;97213.02;108327;1284;22593;-85
2024/01/23 15:15:13;;;;;;;6.10;3.80;;;;;;;3.38;92.79;97216.96;108224;1280;137601;-85
2024/01/23 15:18:40;;;;;;;7.40;3.50;;;;;;;3.38;93.23;97210.97;108312;1284;22534;-85
2024/01/23 15:22:07;;;;;;;6.90;3.30;;;;;;;3.39;92.60;97224.60;108231;1284;137083;-85
2024/01/23 15:25:35;;;;;;;7.40;5.30;;;;;;;3.46;92.66;97228.38;108254;1283;22571;-85
2024/01/23 15:29:03;;;;;;;6.80;4.40;;;;;;;3.51;92.18;97234.27;108158;1284;22716;-85
2024/01/23 15:32:15;;;;;;;9.30;7.10;;;;;;;3.62;91.81;97248.92;108099;1284;138213;-85
2024/01/23 15:35:35;;;;;;;10.20;6.20;;;;;;;3.69;91.02;97242.90;108319;1284;22628;-85
2024/01/23 15:38:54;;;;;;;;;;;;;;;;;;;;;
2024/01/23 15:42:17;;;;;;;;;;;;;;;;;;;;;
2024/01/23 15:45:25;;;;;;;;;;;;;;;3.70;91.47;97278.30;108190;1283;137329;-85
2024/01/23 15:48:44;;;;;;;15.90;9.30;;;;;;;3.68;90.66;97292.60;108429;1278;22618;-85
2024/01/23 15:52:11;;;;;;;14.10;9.50;;;;;;;3.68;90.73;97292.30;108238;1284;137809;-85
2024/01/23 15:55:38;;;;;;;9.60;6.70;;;;;;;3.71;90.55;97290.30;108230;1279;23230;-85
2024/01/23 15:59:04;;;;;;;12.40;8.00;;;;;;;3.78;90.33;97297.14;108253;1284;22527;-85
2024/01/23 16:02:26;;;;;;;;;;;;;;;;;;;;;
2024/01/23 16:06:05;;;;;;;17.10;10.10;;;;;;;3.87;90.11;97307.64;108055;1284;22529;-85
2024/01/23 16:09:30;;;;;;;;;;;;;;;;;;;;;
2024/01/23 16:12:58;;;;;;;50.40;34.80;;;;;;;3.83;89.75;97336.67;108218;1277;24054;-85
2024/01/23 16:16:28;;;;;;;28.50;19.90;;;;;;;3.81;89.39;97330.55;108177;1283;137528;-86
2024/01/23 16:19:55;;;;;;;28.50;16.40;;;;;;;3.81;88.98;97331.89;108069;1283;22664;-85
2024/01/23 16:23:20;;;;;;;20.30;12.40;;;;;;;3.82;89.14;97338.71;108419;1283;22547;-85
2024/01/23 16:26:44;;;;;;;19.40;12.10;;;;;;;3.84;88.63;97340.91;108295;1284;138431;-86
2024/01/23 16:30:04;;;;;;;;;;;;;;;;;;;;;
2024/01/23 16:33:33;;;;;;;16.00;8.80;;;;;;;3.89;88.48;97350.13;108195;1283;136442;-87
2024/01/23 16:40:21;;;;;;;15.90;8.10;;;;;;;3.85;88.79;97355.23;108134;1283;137086;-86